sensor_id;sensor_type;location;lat;lon;timestamp;pressure;altitude;pressure_sealevel;temperature;humidity
59170;BME280;52474;52.236;5.114;2023-02-03T00:00:26;102468.97;;;7.92;100.00
59170;BME280;52474;52.236;5.114;2023-02-03T00:02:56;102473.09;;;7.98;100.00
59170;BME280;52474;52.236;5.114;2023-02-03T00:05:22;102470.53;;;7.96;100.00
59170;BME280;52474;52.236;5.114;2023-02-03T00:07:48;102484.50;;;7.98;100.00
59170;BME280;52474;52.236;5.114;2023-02-03T00:10:14;102477.44;;;7.99;100.00
59170;BME280;52474;52.236;5.114;2023-02-03T00:12:40;102481.88;;;7.98;100.00
59170;BME280;52474;52.236;5.114;2023-02-03T00:15:06;102491.63;;;7.96;100.00
59170;BME280;52474;52.236;5.114;2023-02-03T00:17:32;102502.13;;;7.98;100.00
59170;BME280;52474;52.236;5.114;2023-02-03T00:19:58;102496.28;;;7.91;100.00
59170;BME280;52474;52.236;5.114;2023-02-03T00:22:23;102504.84;;;7.96;100.00
59170;BME280;52474;52.236;5.114;2023-02-03T00:24:49;102502.75;;;8.03;100.00
59170;BME280;52474;52.236;5.114;2023-02-03T00:27:14;102506.94;;;8.07;100.00
59170;BME280;52474;52.236;5.114;2023-02-03T00:29:40;102492.06;;;8.06;100.00
59170;BME280;52474;52.236;5.114;2023-02-03T00:32:06;102502.66;;;8.04;100.00
59170;BME280;52474;52.236;5.114;2023-02-03T00:34:31;102507.09;;;8.04;100.00
59170;BME280;52474;52.236;5.114;2023-02-03T00:36:57;102500.03;;;8.04;100.00
59170;BME280;52474;52.236;5.114;2023-02-03T00:39:23;102502.81;;;8.01;100.00
59170;BME280;52474;52.236;5.114;2023-02-03T00:41:48;102506.25;;;8.03;100.00
59170;BME280;52474;52.236;5.114;2023-02-03T00:44:14;102490.63;;;7.99;100.00
59170;BME280;52474;52.236;5.114;2023-02-03T00:46:40;102508.94;;;8.02;100.00
59170;BME280;52474;52.236;5.114;2023-02-03T00:49:05;102490.19;;;8.08;100.00
59170;BME280;52474;52.236;5.114;2023-02-03T00:51:32;102468.69;;;7.98;100.00
59170;BME280;52474;52.236;5.114;2023-02-03T00:53:58;102479.88;;;8.03;100.00
59170;BME280;52474;52.236;5.114;2023-02-03T00:56:23;102489.69;;;8.00;100.00
59170;BME280;52474;52.236;5.114;2023-02-03T00:58:49;102483.34;;;8.04;100.00
59170;BME280;52474;52.236;5.114;2023-02-03T01:01:15;102491.28;;;8.04;100.00
59170;BME280;52474;52.236;5.114;2023-02-03T01:03:41;102473.22;;;7.94;100.00
59170;BME280;52474;52.236;5.114;2023-02-03T01:06:12;102468.47;;;8.03;100.00
59170;BME280;52474;52.236;5.114;2023-02-03T01:08:38;102474.59;;;8.03;100.00
59170;BME280;52474;52.236;5.114;2023-02-03T01:11:06;102476.59;;;7.98;100.00
59170;BME280;52474;52.236;5.114;2023-02-03T01:13:32;102479.44;;;7.93;100.00
59170;BME280;52474;52.236;5.114;2023-02-03T01:15:57;102477.88;;;7.89;100.00
59170;BME280;52474;52.236;5.114;2023-02-03T01:18:24;102468.91;;;7.93;100.00
59170;BME280;52474;52.236;5.114;2023-02-03T01:20:50;102454.84;;;7.93;100.00
59170;BME280;52474;52.236;5.114;2023-02-03T01:23:16;102453.34;;;7.87;100.00
59170;BME280;52474;52.236;5.114;2023-02-03T01:25:41;102452.31;;;8.09;100.00
59170;BME280;52474;52.236;5.114;2023-02-03T01:28:07;102449.00;;;8.05;100.00
59170;BME280;52474;52.236;5.114;2023-02-03T01:30:33;102452.06;;;7.96;100.00
59170;BME280;52474;52.236;5.114;2023-02-03T01:32:59;102435.38;;;7.95;100.00
59170;BME280;52474;52.236;5.114;2023-02-03T01:35:24;102454.16;;;8.07;100.00
59170;BME280;52474;52.236;5.114;2023-02-03T01:37:50;102449.69;;;8.09;100.00
59170;BME280;52474;52.236;5.114;2023-02-03T01:40:17;102425.69;;;7.96;100.00
59170;BME280;52474;52.236;5.114;2023-02-03T01:42:43;102456.28;;;8.00;100.00
59170;BME280;52474;52.236;5.114;2023-02-03T01:45:09;102470.09;;;8.05;100.00
59170;BME280;52474;52.236;5.114;2023-02-03T01:47:45;102475.81;;;7.96;100.00
59170;BME280;52474;52.236;5.114;2023-02-03T01:52:49;102448.88;;;8.07;100.00
59170;BME280;52474;52.236;5.114;2023-02-03T01:55:19;102433.84;;;8.09;100.00
59170;BME280;52474;52.236;5.114;2023-02-03T01:57:56;102443.22;;;8.14;100.00
59170;BME280;52474;52.236;5.114;2023-02-03T02:00:24;102439.91;;;8.11;100.00
59170;BME280;52474;52.236;5.114;2023-02-03T02:02:53;102425.94;;;8.09;100.00
59170;BME280;52474;52.236;5.114;2023-02-03T02:05:33;102415.81;;;8.00;100.00
59170;BME280;52474;52.236;5.114;2023-02-03T02:08:01;102417.38;;;8.04;100.00
59170;BME280;52474;52.236;5.114;2023-02-03T02:10:32;102422.13;;;8.14;100.00
59170;BME280;52474;52.236;5.114;2023-02-03T02:12:59;102416.09;;;8.12;100.00
59170;BME280;52474;52.236;5.114;2023-02-03T02:15:37;102432.78;;;8.13;100.00
59170;BME280;52474;52.236;5.114;2023-02-03T02:18:12;102432.78;;;8.13;100.00
59170;BME280;52474;52.236;5.114;2023-02-03T02:21:30;102443.94;;;8.18;100.00
59170;BME280;52474;52.236;5.114;2023-02-03T02:26:59;102429.81;;;8.19;100.00
59170;BME280;52474;52.236;5.114;2023-02-03T02:29:44;102422.28;;;8.29;100.00
59170;BME280;52474;52.236;5.114;2023-02-03T02:40:20;102419.97;;;8.23;100.00
59170;BME280;52474;52.236;5.114;2023-02-03T02:43:07;102433.84;;;8.26;100.00
59170;BME280;52474;52.236;5.114;2023-02-03T02:45:48;102419.03;;;8.24;100.00
59170;BME280;52474;52.236;5.114;2023-02-03T02:48:25;102396.50;;;8.16;100.00
59170;BME280;52474;52.236;5.114;2023-02-03T02:50:55;102413.34;;;8.31;100.00
59170;BME280;52474;52.236;5.114;2023-02-03T02:53:25;102407.41;;;8.28;100.00
59170;BME280;52474;52.236;5.114;2023-02-03T02:55:54;102390.47;;;8.32;100.00
59170;BME280;52474;52.236;5.114;2023-02-03T02:58:22;102388.13;;;8.26;100.00
59170;BME280;52474;52.236;5.114;2023-02-03T03:00:49;102398.53;;;8.29;100.00
59170;BME280;52474;52.236;5.114;2023-02-03T03:05:45;102413.59;;;8.27;100.00
59170;BME280;52474;52.236;5.114;2023-02-03T03:08:17;102414.31;;;8.30;100.00
59170;BME280;52474;52.236;5.114;2023-02-03T03:10:46;102405.00;;;8.23;100.00
59170;BME280;52474;52.236;5.114;2023-02-03T03:13:18;102412.34;;;8.34;100.00
59170;BME280;52474;52.236;5.114;2023-02-03T03:15:47;102411.72;;;8.29;100.00
59170;BME280;52474;52.236;5.114;2023-02-03T03:18:24;102393.47;;;8.24;100.00
59170;BME280;52474;52.236;5.114;2023-02-03T03:20:54;102410.25;;;8.23;100.00
59170;BME280;52474;52.236;5.114;2023-02-03T03:23:28;102411.72;;;8.29;100.00
59170;BME280;52474;52.236;5.114;2023-02-03T03:26:13;102410.03;;;8.28;100.00
59170;BME280;52474;52.236;5.114;2023-02-03T03:28:46;102402.50;;;8.20;100.00
59170;BME280;52474;52.236;5.114;2023-02-03T03:31:17;102413.53;;;8.28;100.00
59170;BME280;52474;52.236;5.114;2023-02-03T03:33:45;102400.31;;;8.28;100.00
59170;BME280;52474;52.236;5.114;2023-02-03T03:36:23;102408.88;;;8.33;100.00
59170;BME280;52474;52.236;5.114;2023-02-03T03:39:10;102414.13;;;8.33;100.00
59170;BME280;52474;52.236;5.114;2023-02-03T03:44:49;102405.38;;;8.33;100.00
59170;BME280;52474;52.236;5.114;2023-02-03T03:47:20;102412.94;;;8.41;100.00
59170;BME280;52474;52.236;5.114;2023-02-03T03:49:48;102398.69;;;8.26;100.00
59170;BME280;52474;52.236;5.114;2023-02-03T03:52:22;102420.13;;;8.37;100.00
59170;BME280;52474;52.236;5.114;2023-02-03T03:54:50;102427.06;;;8.40;100.00
59170;BME280;52474;52.236;5.114;2023-02-03T03:57:22;102406.69;;;8.42;100.00
59170;BME280;52474;52.236;5.114;2023-02-03T03:59:50;102413.06;;;8.37;100.00
59170;BME280;52474;52.236;5.114;2023-02-03T04:02:17;102400.56;;;8.41;100.00
59170;BME280;52474;52.236;5.114;2023-02-03T04:04:45;102416.72;;;8.35;100.00
59170;BME280;52474;52.236;5.114;2023-02-03T04:07:14;102405.53;;;8.30;100.00
59170;BME280;52474;52.236;5.114;2023-02-03T04:09:40;102416.34;;;8.43;100.00
59170;BME280;52474;52.236;5.114;2023-02-03T04:12:23;102419.59;;;8.48;100.00
59170;BME280;52474;52.236;5.114;2023-02-03T04:14:48;102419.84;;;8.43;100.00
59170;BME280;52474;52.236;5.114;2023-02-03T04:17:14;102437.47;;;8.43;100.00
59170;BME280;52474;52.236;5.114;2023-02-03T04:19:40;102437.63;;;8.40;100.00
59170;BME280;52474;52.236;5.114;2023-02-03T04:22:05;102438.16;;;8.46;100.00
59170;BME280;52474;52.236;5.114;2023-02-03T04:24:31;102420.78;;;8.42;100.00
59170;BME280;52474;52.236;5.114;2023-02-03T04:26:57;102427.94;;;8.40;100.00
59170;BME280;52474;52.236;5.114;2023-02-03T04:29:22;102428.53;;;8.45;100.00
59170;BME280;52474;52.236;5.114;2023-02-03T04:31:48;102414.06;;;8.35;100.00
59170;BME280;52474;52.236;5.114;2023-02-03T04:34:14;102398.47;;;8.30;100.00
59170;BME280;52474;52.236;5.114;2023-02-03T04:36:39;102420.78;;;8.42;100.00
59170;BME280;52474;52.236;5.114;2023-02-03T04:39:05;102406.31;;;8.32;100.00
59170;BME280;52474;52.236;5.114;2023-02-03T04:41:31;102422.78;;;8.37;100.00
59170;BME280;52474;52.236;5.114;2023-02-03T04:43:56;102426.25;;;8.37;100.00
59170;BME280;52474;52.236;5.114;2023-02-03T04:46:22;102419.41;;;8.33;100.00
59170;BME280;52474;52.236;5.114;2023-02-03T04:48:48;102418.56;;;8.33;100.00
59170;BME280;52474;52.236;5.114;2023-02-03T04:51:13;102409.81;;;8.32;100.00
59170;BME280;52474;52.236;5.114;2023-02-03T04:53:39;102408.88;;;8.33;100.00
59170;BME280;52474;52.236;5.114;2023-02-03T04:56:05;102392.81;;;8.21;100.00
59170;BME280;52474;52.236;5.114;2023-02-03T04:58:30;102412.50;;;8.31;100.00
59170;BME280;52474;52.236;5.114;2023-02-03T05:00:56;102412.84;;;8.25;100.00
59170;BME280;52474;52.236;5.114;2023-02-03T05:03:22;102404.03;;;8.24;100.00
59170;BME280;52474;52.236;5.114;2023-02-03T05:05:49;102404.66;;;8.29;100.00
59170;BME280;52474;52.236;5.114;2023-02-03T05:08:14;102408.88;;;8.33;100.00
59170;BME280;52474;52.236;5.114;2023-02-03T05:10:40;102405.44;;;8.31;100.00
59170;BME280;52474;52.236;5.114;2023-02-03T05:13:06;102424.00;;;8.30;100.00
59170;BME280;52474;52.236;5.114;2023-02-03T05:15:31;102436.28;;;8.31;100.00
59170;BME280;52474;52.236;5.114;2023-02-03T05:17:57;102429.69;;;8.22;100.00
59170;BME280;52474;52.236;5.114;2023-02-03T05:20:22;102428.56;;;8.26;100.00
59170;BME280;52474;52.236;5.114;2023-02-03T05:22:48;102413.06;;;8.20;100.00
59170;BME280;52474;52.236;5.114;2023-02-03T05:25:14;102419.47;;;8.14;100.00
59170;BME280;52474;52.236;5.114;2023-02-03T05:27:40;102410.03;;;8.10;100.00
59170;BME280;52474;52.236;5.114;2023-02-03T05:30:07;102421.84;;;8.21;100.00
59170;BME280;52474;52.236;5.114;2023-02-03T05:32:34;102421.22;;;8.15;100.00
59170;BME280;52474;52.236;5.114;2023-02-03T05:34:59;102427.16;;;8.19;100.00
59170;BME280;52474;52.236;5.114;2023-02-03T05:37:25;102427.34;;;8.16;100.00
59170;BME280;52474;52.236;5.114;2023-02-03T05:39:51;102422.22;;;8.13;100.00
59170;BME280;52474;52.236;5.114;2023-02-03T05:42:16;102434.25;;;8.18;100.00
59170;BME280;52474;52.236;5.114;2023-02-03T05:44:42;102418.72;;;8.12;100.00
59170;BME280;52474;52.236;5.114;2023-02-03T05:47:08;102435.97;;;8.20;100.00
59170;BME280;52474;52.236;5.114;2023-02-03T05:49:33;102441.38;;;8.16;100.00
59170;BME280;52474;52.236;5.114;2023-02-03T05:51:59;102425.53;;;8.16;100.00
59170;BME280;52474;52.236;5.114;2023-02-03T05:54:25;102426.56;;;8.14;100.00
59170;BME280;52474;52.236;5.114;2023-02-03T05:56:51;102435.69;;;8.07;100.00
59170;BME280;52474;52.236;5.114;2023-02-03T05:59:17;102438.34;;;8.07;100.00
59170;BME280;52474;52.236;5.114;2023-02-03T06:01:43;102429.94;;;7.99;100.00
59170;BME280;52474;52.236;5.114;2023-02-03T06:04:08;102441.34;;;7.99;100.00
59170;BME280;52474;52.236;5.114;2023-02-03T06:06:34;102442.13;;;8.01;100.00
59170;BME280;52474;52.236;5.114;2023-02-03T06:09:01;102437.72;;;8.02;100.00
59170;BME280;52474;52.236;5.114;2023-02-03T06:11:27;102445.78;;;7.99;100.00
59170;BME280;52474;52.236;5.114;2023-02-03T06:13:54;102443.38;;;7.94;100.00
59170;BME280;52474;52.236;5.114;2023-02-03T06:16:21;102437.81;;;8.00;100.00
59170;BME280;52474;52.236;5.114;2023-02-03T06:18:52;102443.94;;;8.01;100.00
59170;BME280;52474;52.236;5.114;2023-02-03T06:21:19;102455.28;;;8.03;100.00
59170;BME280;52474;52.236;5.114;2023-02-03T06:23:45;102456.19;;;8.02;100.00
59170;BME280;52474;52.236;5.114;2023-02-03T06:26:10;102452.63;;;8.03;100.00
59170;BME280;52474;52.236;5.114;2023-02-03T06:28:36;102459.59;;;8.04;100.00
59170;BME280;52474;52.236;5.114;2023-02-03T06:31:03;102456.34;;;7.99;100.00
59170;BME280;52474;52.236;5.114;2023-02-03T06:33:30;102453.69;;;7.99;100.00
59170;BME280;52474;52.236;5.114;2023-02-03T06:35:55;102461.56;;;8.00;100.00
59170;BME280;52474;52.236;5.114;2023-02-03T06:38:21;102461.63;;;7.99;100.00
59170;BME280;52474;52.236;5.114;2023-02-03T06:40:47;102449.81;;;7.88;100.00
59170;BME280;52474;52.236;5.114;2023-02-03T06:43:14;102479.66;;;7.89;100.00
59170;BME280;52474;52.236;5.114;2023-02-03T06:45:40;102475.25;;;7.89;100.00
59170;BME280;52474;52.236;5.114;2023-02-03T06:48:05;102475.41;;;7.86;100.00
59170;BME280;52474;52.236;5.114;2023-02-03T06:50:32;102477.47;;;7.80;100.00
59170;BME280;52474;52.236;5.114;2023-02-03T06:52:58;102465.28;;;7.77;100.00
59170;BME280;52474;52.236;5.114;2023-02-03T06:55:24;102486.00;;;7.85;100.00
59170;BME280;52474;52.236;5.114;2023-02-03T06:57:49;102492.91;;;7.87;100.00
59170;BME280;52474;52.236;5.114;2023-02-03T07:00:17;102495.66;;;7.86;100.00
59170;BME280;52474;52.236;5.114;2023-02-03T07:02:43;102497.50;;;7.84;100.00
59170;BME280;52474;52.236;5.114;2023-02-03T07:05:09;102498.19;;;7.87;100.00
59170;BME280;52474;52.236;5.114;2023-02-03T07:07:35;102497.28;;;7.88;100.00
59170;BME280;52474;52.236;5.114;2023-02-03T07:10:03;102496.34;;;7.89;100.00
59170;BME280;52474;52.236;5.114;2023-02-03T07:12:30;102505.91;;;7.92;100.00
59170;BME280;52474;52.236;5.114;2023-02-03T07:14:56;102501.56;;;7.91;100.00
59170;BME280;52474;52.236;5.114;2023-02-03T07:17:22;102497.19;;;7.90;100.00
59170;BME280;52474;52.236;5.114;2023-02-03T07:19:47;102487.88;;;7.83;100.00
59170;BME280;52474;52.236;5.114;2023-02-03T07:22:13;102494.22;;;7.98;100.00
59170;BME280;52474;52.236;5.114;2023-02-03T07:24:39;102500.19;;;8.01;100.00
59170;BME280;52474;52.236;5.114;2023-02-03T07:27:07;102492.13;;;8.04;100.00
59170;BME280;52474;52.236;5.114;2023-02-03T07:29:33;102488.69;;;8.02;100.00
59170;BME280;52474;52.236;5.114;2023-02-03T07:31:59;102500.19;;;8.01;100.00
59170;BME280;52474;52.236;5.114;2023-02-03T07:34:27;102471.06;;;7.85;100.00
59170;BME280;52474;52.236;5.114;2023-02-03T07:36:53;102479.22;;;7.98;100.00
59170;BME280;52474;52.236;5.114;2023-02-03T07:39:19;102494.06;;;8.01;100.00
59170;BME280;52474;52.236;5.114;2023-02-03T07:41:44;102492.13;;;8.04;100.00
59170;BME280;52474;52.236;5.114;2023-02-03T07:44:10;102495.13;;;7.96;100.00
59170;BME280;52474;52.236;5.114;2023-02-03T07:46:36;102485.56;;;7.94;100.00
59170;BME280;52474;52.236;5.114;2023-02-03T07:49:05;102508.66;;;8.08;100.00
59170;BME280;52474;52.236;5.114;2023-02-03T07:51:31;102518.28;;;8.09;100.00
59170;BME280;52474;52.236;5.114;2023-02-03T07:53:57;102490.78;;;7.95;100.00
59170;BME280;52474;52.236;5.114;2023-02-03T07:56:22;102505.47;;;8.01;100.00
59170;BME280;52474;52.236;5.114;2023-02-03T07:58:51;102510.81;;;8.00;100.00
59170;BME280;52474;52.236;5.114;2023-02-03T08:01:17;102511.44;;;8.05;100.00
59170;BME280;52474;52.236;5.114;2023-02-03T08:03:43;102508.88;;;8.03;100.00
59170;BME280;52474;52.236;5.114;2023-02-03T08:06:09;102504.41;;;8.05;100.00
59170;BME280;52474;52.236;5.114;2023-02-03T08:08:35;102535.47;;;8.17;100.00
59170;BME280;52474;52.236;5.114;2023-02-03T08:11:00;102534.75;;;8.14;100.00
59170;BME280;52474;52.236;5.114;2023-02-03T08:13:26;102541.19;;;8.08;100.00
59170;BME280;52474;52.236;5.114;2023-02-03T08:15:52;102556.38;;;8.22;100.00
59170;BME280;52474;52.236;5.114;2023-02-03T08:18:18;102557.22;;;8.23;100.00
59170;BME280;52474;52.236;5.114;2023-02-03T08:20:45;102550.16;;;8.23;100.00
59170;BME280;52474;52.236;5.114;2023-02-03T08:23:11;102544.03;;;8.23;100.00
59170;BME280;52474;52.236;5.114;2023-02-03T08:25:37;102559.69;;;8.26;100.00
59170;BME280;52474;52.236;5.114;2023-02-03T08:28:03;102573.53;;;8.31;100.00
59170;BME280;52474;52.236;5.114;2023-02-03T08:30:28;102572.13;;;8.24;100.00
59170;BME280;52474;52.236;5.114;2023-02-03T08:32:54;102564.69;;;8.32;100.00
59170;BME280;52474;52.236;5.114;2023-02-03T08:35:20;102572.47;;;8.35;100.00
59170;BME280;52474;52.236;5.114;2023-02-03T08:37:46;102570.41;;;8.42;100.00
59170;BME280;52474;52.236;5.114;2023-02-03T08:40:11;102575.69;;;8.42;100.00
59170;BME280;52474;52.236;5.114;2023-02-03T08:42:37;102590.59;;;8.43;100.00
59170;BME280;52474;52.236;5.114;2023-02-03T08:45:04;102560.13;;;8.35;100.00
59170;BME280;52474;52.236;5.114;2023-02-03T08:47:29;102571.91;;;8.47;100.00
59170;BME280;52474;52.236;5.114;2023-02-03T08:49:55;102576.88;;;8.53;100.00
59170;BME280;52474;52.236;5.114;2023-02-03T08:52:21;102562.97;;;8.50;100.00
59170;BME280;52474;52.236;5.114;2023-02-03T08:54:47;102568.66;;;8.59;100.00
59170;BME280;52474;52.236;5.114;2023-02-03T08:57:13;102578.28;;;8.60;100.00
59170;BME280;52474;52.236;5.114;2023-02-03T08:59:40;102585.19;;;8.63;100.00
59170;BME280;52474;52.236;5.114;2023-02-03T09:02:10;102574.97;;;8.74;100.00
59170;BME280;52474;52.236;5.114;2023-02-03T09:04:37;102577.38;;;8.79;100.00
59170;BME280;52474;52.236;5.114;2023-02-03T09:07:03;102596.63;;;8.81;100.00
59170;BME280;52474;52.236;5.114;2023-02-03T09:09:29;102581.66;;;8.81;100.00
59170;BME280;52474;52.236;5.114;2023-02-03T09:11:55;102591.75;;;8.91;100.00
59170;BME280;52474;52.236;5.114;2023-02-03T09:14:30;102590.59;;;8.96;100.00
59170;BME280;52474;52.236;5.114;2023-02-03T09:16:58;102593.00;;;9.01;100.00
59170;BME280;52474;52.236;5.114;2023-02-03T09:19:24;102598.28;;;9.01;100.00
59170;BME280;52474;52.236;5.114;2023-02-03T09:21:50;102610.41;;;9.05;100.00
59170;BME280;52474;52.236;5.114;2023-02-03T09:24:16;102593.75;;;9.03;100.00
59170;BME280;52474;52.236;5.114;2023-02-03T09:26:42;102577.22;;;8.99;100.00
59170;BME280;52474;52.236;5.114;2023-02-03T09:29:08;102604.03;;;9.09;100.00
59170;BME280;52474;52.236;5.114;2023-02-03T09:31:34;102584.31;;;8.99;100.00
59170;BME280;52474;52.236;5.114;2023-02-03T09:33:59;102591.06;;;9.05;100.00
59170;BME280;52474;52.236;5.114;2023-02-03T09:36:25;102594.41;;;9.08;100.00
59170;BME280;52474;52.236;5.114;2023-02-03T09:38:51;102606.06;;;9.04;100.00
59170;BME280;52474;52.236;5.114;2023-02-03T09:44:32;102604.19;;;9.06;100.00
59170;BME280;52474;52.236;5.114;2023-02-03T09:47:04;102616.78;;;9.01;100.00
59170;BME280;52474;52.236;5.114;2023-02-03T09:49:54;102623.47;;;9.08;100.00
59170;BME280;52474;52.236;5.114;2023-02-03T09:52:40;102609.25;;;9.11;100.00
59170;BME280;52474;52.236;5.114;2023-02-03T09:58:04;102619.72;;;9.12;100.00
59170;BME280;52474;52.236;5.114;2023-02-03T10:00:50;102636.44;;;9.13;100.00
59170;BME280;52474;52.236;5.114;2023-02-03T10:03:58;102628.66;;;9.10;100.00
59170;BME280;52474;52.236;5.114;2023-02-03T10:09:14;102619.72;;;9.12;100.00
59170;BME280;52474;52.236;5.114;2023-02-03T10:14:38;102634.69;;;9.13;100.00
59170;BME280;52474;52.236;5.114;2023-02-03T10:17:39;102640.81;;;9.14;100.00
59170;BME280;52474;52.236;5.114;2023-02-03T10:20:19;102638.22;;;9.12;100.00
59170;BME280;52474;52.236;5.114;2023-02-03T10:22:56;102645.16;;;9.15;100.00
59170;BME280;52474;52.236;5.114;2023-02-03T10:27:58;102645.63;;;9.23;100.00
59170;BME280;52474;52.236;5.114;2023-02-03T10:30:41;102651.69;;;9.25;100.00
59170;BME280;52474;52.236;5.114;2023-02-03T10:33:15;102640.47;;;9.20;100.00
59170;BME280;52474;52.236;5.114;2023-02-03T10:38:45;102653.19;;;9.31;100.00
59170;BME280;52474;52.236;5.114;2023-02-03T10:41:16;102670.19;;;9.25;100.00
59170;BME280;52474;52.236;5.114;2023-02-03T10:43:45;102661.97;;;9.31;100.00
59170;BME280;52474;52.236;5.114;2023-02-03T10:46:36;102671.59;;;9.32;100.00
59170;BME280;52474;52.236;5.114;2023-02-03T10:49:03;102647.63;;;9.18;100.00
59170;BME280;52474;52.236;5.114;2023-02-03T10:54:00;102670.19;;;9.42;100.00
59170;BME280;52474;52.236;5.114;2023-02-03T10:56:31;102655.81;;;9.48;100.00
59170;BME280;52474;52.236;5.114;2023-02-03T10:59:00;102668.47;;;9.59;100.00
59170;BME280;52474;52.236;5.114;2023-02-03T11:01:37;102664.75;;;9.45;100.00
59170;BME280;52474;52.236;5.114;2023-02-03T11:04:05;102667.94;;;9.35;100.00
59170;BME280;52474;52.236;5.114;2023-02-03T11:06:32;102684.19;;;9.44;100.00
59170;BME280;52474;52.236;5.114;2023-02-03T11:08:59;102681.09;;;9.36;100.00
59170;BME280;52474;52.236;5.114;2023-02-03T11:11:27;102680.69;;;9.44;100.00
59170;BME280;52474;52.236;5.114;2023-02-03T11:16:29;102680.63;;;9.45;100.00
59170;BME280;52474;52.236;5.114;2023-02-03T11:19:03;102689.19;;;9.51;100.00
59170;BME280;52474;52.236;5.114;2023-02-03T11:21:45;102678.38;;;9.55;100.00
59170;BME280;52474;52.236;5.114;2023-02-03T11:24:19;102686.06;;;9.60;100.00
59170;BME280;52474;52.236;5.114;2023-02-03T11:29:26;102683.25;;;9.63;100.00
59170;BME280;52474;52.236;5.114;2023-02-03T11:31:56;102682.88;;;9.53;100.00
59170;BME280;52474;52.236;5.114;2023-02-03T11:34:30;102693.69;;;9.49;100.00
59170;BME280;52474;52.236;5.114;2023-02-03T11:36:56;102677.56;;;9.53;100.00
59170;BME280;52474;52.236;5.114;2023-02-03T11:39:29;102678.13;;;9.60;100.00
59170;BME280;52474;52.236;5.114;2023-02-03T11:42:01;102674.78;;;9.56;100.00
59170;BME280;52474;52.236;5.114;2023-02-03T11:44:29;102666.53;;;9.62;100.00
59170;BME280;52474;52.236;5.114;2023-02-03T11:47:02;102667.78;;;9.55;100.00
59170;BME280;52474;52.236;5.114;2023-02-03T11:52:06;102676.25;;;9.44;100.00
59170;BME280;52474;52.236;5.114;2023-02-03T12:09:22;102684.97;;;9.29;100.00
59170;BME280;52474;52.236;5.114;2023-02-03T12:13:33;102692.28;;;9.24;100.00
59170;BME280;52474;52.236;5.114;2023-02-03T12:15:37;102700.50;;;9.18;100.00
59170;BME280;52474;52.236;5.114;2023-02-03T12:26:37;102713.59;;;8.85;100.00
59170;BME280;52474;52.236;5.114;2023-02-03T12:29:12;102707.97;;;8.73;100.00
59170;BME280;52474;52.236;5.114;2023-02-03T12:34:48;102725.09;;;8.84;100.00
59170;BME280;52474;52.236;5.114;2023-02-03T12:37:21;102725.00;;;8.85;100.00
59170;BME280;52474;52.236;5.114;2023-02-03T12:39:53;102735.38;;;8.90;100.00
59170;BME280;52474;52.236;5.114;2023-02-03T12:42:41;102731.66;;;8.94;100.00
59170;BME280;52474;52.236;5.114;2023-02-03T12:45:14;102743.88;;;8.96;100.00
59170;BME280;52474;52.236;5.114;2023-02-03T12:50:25;102749.69;;;9.03;100.00
59170;BME280;52474;52.236;5.114;2023-02-03T12:53:03;102740.75;;;9.06;100.00
59170;BME280;52474;52.236;5.114;2023-02-03T12:55:37;102753.00;;;9.08;100.00
59170;BME280;52474;52.236;5.114;2023-02-03T12:58:20;102753.63;;;9.13;100.00
59170;BME280;52474;52.236;5.114;2023-02-03T13:00:55;102755.69;;;9.07;100.00
59170;BME280;52474;52.236;5.114;2023-02-03T13:03:44;102766.22;;;9.08;100.00
59170;BME280;52474;52.236;5.114;2023-02-03T13:09:24;102764.31;;;9.10;100.00
59170;BME280;52474;52.236;5.114;2023-02-03T13:12:12;102772.81;;;9.17;100.00
59170;BME280;52474;52.236;5.114;2023-02-03T13:17:41;102772.88;;;9.15;100.00
59170;BME280;52474;52.236;5.114;2023-02-03T13:20:18;102775.47;;;9.17;100.00
59170;BME280;52474;52.236;5.114;2023-02-03T13:22:45;102773.03;;;9.12;100.00
59170;BME280;52474;52.236;5.114;2023-02-03T13:25:25;102759.13;;;9.09;100.00
59170;BME280;52474;52.236;5.114;2023-02-03T13:30:56;102783.34;;;9.18;100.00
59170;BME280;52474;52.236;5.114;2023-02-03T13:41:55;102770.50;;;9.11;100.00
59170;BME280;52474;52.236;5.114;2023-02-03T13:44:33;102773.25;;;9.08;100.00
59170;BME280;52474;52.236;5.114;2023-02-03T13:47:00;102767.50;;;8.99;100.00
59170;BME280;52474;52.236;5.114;2023-02-03T13:49:31;102770.06;;;9.01;100.00
59170;BME280;52474;52.236;5.114;2023-02-03T13:51:58;102760.41;;;9.00;100.00
59170;BME280;52474;52.236;5.114;2023-02-03T13:54:26;102753.59;;;8.96;100.00
59170;BME280;52474;52.236;5.114;2023-02-03T13:56:59;102777.75;;;9.06;100.00
59170;BME280;52474;52.236;5.114;2023-02-03T14:02:30;102767.84;;;9.11;100.00
59170;BME280;52474;52.236;5.114;2023-02-03T14:05:43;102745.19;;;9.05;100.00
59170;BME280;52474;52.236;5.114;2023-02-03T14:16:41;102775.53;;;9.15;100.00
59170;BME280;52474;52.236;5.114;2023-02-03T14:19:09;102781.75;;;9.14;100.00
59170;BME280;52474;52.236;5.114;2023-02-03T14:21:40;102776.31;;;9.17;100.00
59170;BME280;52474;52.236;5.114;2023-02-03T14:24:09;102790.84;;;9.09;100.00
59170;BME280;52474;52.236;5.114;2023-02-03T14:26:44;102793.56;;;9.07;100.00
59170;BME280;52474;52.236;5.114;2023-02-03T14:29:27;102776.69;;;8.91;100.00
59170;BME280;52474;52.236;5.114;2023-02-03T14:32:03;102794.50;;;9.06;100.00
59170;BME280;52474;52.236;5.114;2023-02-03T14:34:44;102793.91;;;8.99;100.00
59170;BME280;52474;52.236;5.114;2023-02-03T14:37:28;102802.13;;;8.93;100.00
59170;BME280;52474;52.236;5.114;2023-02-03T14:59:01;102806.13;;;8.83;100.00
59170;BME280;52474;52.236;5.114;2023-02-03T15:06:38;102817.16;;;8.74;100.00
59170;BME280;52474;52.236;5.114;2023-02-03T15:09:42;102821.75;;;8.69;100.00
59170;BME280;52474;52.236;5.114;2023-02-03T15:12:43;102824.50;;;8.67;100.00